Time;durP1;ratioP1;P1;durP2;ratioP2;P2;SDS_P1;SDS_P2;PMS_P1;PMS_P2;Temp;Humidity;BMP_temperature;BMP_pressure;BME280_temperature;BME280_humidity;BME280_pressure;Samples;Min_cycle;Max_cycle;Signal;HPM_P1;HPM_P2
2022/04/06 00:00:09;;;;;;;;;2.50;1.00;;;;;11.69;63.89;100779.53;5099922;27;45335;-62
2022/04/06 00:02:35;;;;;;;;;1.25;1.25;;;;;11.66;64.13;100774.41;5098893;27;45371;-62
2022/04/06 00:05:01;;;;;;;;;4.50;3.00;;;;;11.67;64.12;100770.91;5100091;27;45359;-62
2022/04/06 00:07:27;;;;;;;;;5.00;2.00;;;;;11.64;63.93;100780.56;5100018;27;46559;-62
2022/04/06 00:09:52;;;;;;;;;3.00;1.75;;;;;11.61;64.07;100775.44;5099685;27;45762;-61
2022/04/06 00:12:18;;;;;;;;;3.00;2.00;;;;;11.65;63.81;100775.31;5100091;27;45555;-61
2022/04/06 00:14:43;;;;;;;;;11.75;8.75;;;;;11.66;64.12;100774.41;5100098;27;45354;-62
2022/04/06 00:17:12;;;;;;;;;16.50;11.50;;;;;11.66;64.10;100771.81;5100460;27;45362;-62
2022/04/06 00:19:38;;;;;;;;;3.50;2.00;;;;;11.68;63.83;100764.81;5101632;27;45587;-62
2022/04/06 00:22:04;;;;;;;;;35.75;27.00;;;;;11.66;64.06;100764.00;5088336;27;45561;-62
2022/04/06 00:24:30;;;;;;;;;3.00;2.00;;;;;11.65;64.16;100762.31;5099166;27;45682;-62
2022/04/06 00:26:55;;;;;;;;;2.50;2.00;;;;;11.66;64.64;100761.41;5101164;27;46144;-61
2022/04/06 00:29:21;;;;;;;;;3.00;1.00;;;;;11.69;64.17;100763.06;5101013;27;45413;-61
2022/04/06 00:31:46;;;;;;;;;2.00;2.00;;;;;11.65;64.02;100754.50;5101037;27;45469;-62
2022/04/06 00:34:12;;;;;;;;;1.00;1.00;;;;;11.61;63.09;100745.06;5093660;27;45514;-62
2022/04/06 00:36:37;;;;;;;;;2.00;1.00;;;;;11.62;63.40;100752.00;5094064;27;46291;-61
2022/04/06 00:39:03;;;;;;;;;2.00;2.00;;;;;11.57;63.69;100749.50;5100667;27;45365;-62
2022/04/06 00:41:28;;;;;;;;;4.00;1.75;;;;;11.55;63.88;100740.06;5101330;27;45763;-61
2022/04/06 00:44:15;;;;;;;;;3.75;2.00;;;;;11.48;64.00;100738.56;5086875;27;46717;-63
2022/04/06 00:46:42;;;;;;;;;4.00;2.50;;;;;11.40;64.05;100740.53;5099688;27;45678;-63
2022/04/06 00:49:11;;;;;;;;;3.00;2.00;;;;;11.32;64.24;100729.50;5099705;27;45903;-66
2022/04/06 00:51:38;;;;;;;;;1.00;1.00;;;;;11.26;64.52;100731.41;5100593;27;45370;-62
2022/04/06 00:54:04;;;;;;;;;2.50;2.00;;;;;11.18;64.86;100730.78;5101040;27;45351;-62
2022/04/06 00:56:29;;;;;;;;;4.00;2.00;;;;;11.12;65.44;100728.38;5102101;27;45390;-62
2022/04/06 00:58:55;;;;;;;;;2.00;1.00;;;;;11.07;65.59;100732.00;5102184;27;45245;-62
2022/04/06 01:01:21;;;;;;;;;5.00;0.00;;;;;11.02;66.36;100719.16;5102288;27;45211;-61
2022/04/06 01:03:46;;;;;;;;;2.00;1.50;;;;;10.96;66.39;100719.31;5102092;27;45453;-61
2022/04/06 01:06:12;;;;;;;;;2.25;1.75;;;;;10.95;66.91;100722.81;5101908;27;45507;-61
2022/04/06 01:08:37;;;;;;;;;2.75;1.00;;;;;10.88;67.16;100718.69;5102120;27;45233;-61
2022/04/06 01:11:03;;;;;;;;;2.75;2.75;;;;;10.81;67.95;100719.75;5102153;27;45863;-61
2022/04/06 01:13:29;;;;;;;;;1.75;1.25;;;;;10.76;68.14;100708.63;5102118;27;45267;-61
2022/04/06 01:15:55;;;;;;;;;3.00;1.00;;;;;10.71;68.11;100706.16;5101927;27;45473;-61
2022/04/06 01:18:20;;;;;;;;;2.00;2.00;;;;;10.67;68.36;100707.16;5102232;27;45324;-61
2022/04/06 01:20:45;;;;;;;;;2.25;1.75;;;;;10.63;68.75;100716.78;5102134;27;45375;-61
2022/04/06 01:23:11;;;;;;;;;3.00;2.00;;;;;10.58;69.11;100716.03;5102057;27;45404;-61
2022/04/06 01:25:38;;;;;;;;;2.50;2.25;;;;;10.52;69.75;100698.03;5101519;27;46518;-61
2022/04/06 01:28:04;;;;;;;;;3.00;1.00;;;;;10.48;70.05;100696.44;5100921;27;45392;-63
2022/04/06 01:30:30;;;;;;;;;1.00;1.00;;;;;10.44;69.60;100705.19;5101636;27;45304;-61
2022/04/06 01:33:04;;;;;;;;;2.00;2.00;;;;;10.41;70.54;100697.50;5101784;27;45366;-61
2022/04/06 01:35:30;;;;;;;;;3.00;2.50;;;;;10.38;70.30;100707.09;5097409;27;46289;-61
2022/04/06 01:37:55;;;;;;;;;3.75;3.75;;;;;10.34;70.33;100699.38;5101617;27;45408;-61
2022/04/06 01:40:21;;;;;;;;;0.00;0.00;;;;;10.29;71.04;100700.41;5101540;27;45301;-62
2022/04/06 01:42:46;;;;;;;;;1.75;1.00;;;;;10.26;69.66;100696.16;5101586;27;45282;-62
2022/04/06 01:45:12;;;;;;;;;1.00;1.00;;;;;10.22;70.68;100691.09;5101352;27;46147;-62
2022/04/06 01:47:37;;;;;;;;;0.00;0.00;;;;;10.21;70.35;100695.44;5101768;27;45223;-62
2022/04/06 01:52:48;;;;;;;;;1.00;1.00;;;;;10.12;71.04;100698.22;5101613;27;45522;-62
2022/04/06 01:55:15;;;;;;;;;2.00;0.00;;;;;10.06;71.28;100696.66;5101215;27;46132;-62
2022/04/06 01:57:42;;;;;;;;;1.00;1.00;;;;;10.03;71.30;100681.16;5101395;27;45370;-62
2022/04/06 02:00:10;;;;;;;;;1.00;1.00;;;;;9.97;71.71;100691.69;5101049;27;45645;-62
2022/04/06 02:02:37;;;;;;;;;3.00;1.75;;;;;9.95;71.49;100696.06;5100973;27;45321;-60
2022/04/06 02:05:03;;;;;;;;;2.00;2.00;;;;;9.91;71.57;100691.84;5101065;27;46255;-60
2022/04/06 02:07:29;;;;;;;;;3.00;2.00;;;;;9.91;71.74;100689.25;5099775;27;45392;-62
2022/04/06 02:09:58;;;;;;;;;4.00;1.00;;;;;9.91;71.63;100684.06;5100382;27;45246;-62
2022/04/06 02:12:23;;;;;;;;;0.00;0.00;;;;;9.91;71.57;100685.81;5100540;27;45387;-63
2022/04/06 02:14:49;;;;;;;;;2.75;2.00;;;;;9.92;71.50;100682.31;5098993;27;45401;-64
2022/04/06 02:17:15;;;;;;;;;0.00;0.00;;;;;9.90;71.44;100677.16;5100278;27;45562;-63
2022/04/06 02:19:41;;;;;;;;;1.00;1.00;;;;;9.88;71.53;100678.09;5101073;27;45322;-63
2022/04/06 02:22:07;;;;;;;;;2.00;1.00;;;;;9.86;71.22;100675.56;5100129;27;45258;-63
2022/04/06 02:24:33;;;;;;;;;3.00;3.00;;;;;9.89;71.74;100674.63;5100286;27;46489;-63
2022/04/06 02:26:59;;;;;;;;;0.75;0.75;;;;;9.89;71.53;100670.28;5100626;27;45818;-63
2022/04/06 02:29:25;;;;;;;;;2.50;1.00;;;;;9.95;71.49;100672.69;5087139;27;45327;-62
2022/04/06 02:31:50;;;;;;;;;4.75;1.00;;;;;9.98;71.23;100672.63;5100729;27;45339;-62
2022/04/06 02:34:16;;;;;;;;;2.00;1.00;;;;;10.05;71.08;100662.94;5101462;27;45249;-62
2022/04/06 02:36:42;;;;;;;;;1.00;1.00;;;;;10.11;70.43;100661.91;5096463;27;45496;-61
2022/04/06 02:39:07;;;;;;;;;1.75;1.75;;;;;10.16;70.20;100658.28;5101361;27;45315;-61
2022/04/06 02:41:32;;;;;;;;;0.00;0.00;;;;;10.21;69.88;100659.09;5101402;27;45294;-61
2022/04/06 02:43:58;;;;;;;;;1.00;1.00;;;;;10.24;70.40;100651.19;5101155;27;46332;-61
2022/04/06 02:46:23;;;;;;;;;1.00;1.00;;;;;10.29;69.96;100648.47;5101161;27;45368;-61
2022/04/06 02:48:49;;;;;;;;;2.75;1.00;;;;;10.28;69.69;100650.22;5101340;27;45271;-61
2022/04/06 02:51:14;;;;;;;;;1.00;1.00;;;;;10.29;69.91;100656.25;5101304;27;45333;-61
2022/04/06 02:53:40;;;;;;;;;1.00;1.00;;;;;10.30;69.77;100663.16;5100857;27;45242;-61
2022/04/06 02:56:05;;;;;;;;;1.00;0.00;;;;;10.30;69.30;100647.56;5089371;27;45160;-61
2022/04/06 02:58:31;;;;;;;;;1.75;1.00;;;;;10.33;69.56;100650.09;5098246;27;45386;-62
2022/04/06 03:00:56;;;;;;;;;3.25;1.00;;;;;10.36;69.02;100655.19;5101026;27;45236;-61
2022/04/06 03:03:23;;;;;;;;;0.00;0.00;;;;;10.36;69.03;100645.66;5100909;27;45381;-64
2022/04/06 03:05:48;;;;;;;;;1.00;1.00;;;;;10.38;69.30;100644.75;5100718;27;45295;-63
2022/04/06 03:08:13;;;;;;;;;1.00;1.00;;;;;10.43;69.12;100641.16;5097774;27;45555;-63
2022/04/06 03:10:39;;;;;;;;;0.50;0.50;;;;;10.45;69.43;100634.16;5097901;27;45371;-63
2022/04/06 03:13:07;;;;;;;;;0.00;0.00;;;;;10.50;68.79;100642.66;5098850;27;46129;-63
2022/04/06 03:15:33;;;;;;;;;0.25;0.00;;;;;10.54;69.09;100630.44;5086397;27;46665;-63
2022/04/06 03:17:58;;;;;;;;;1.00;0.00;;;;;10.59;68.74;100632.00;5098020;27;45429;-63
2022/04/06 03:20:24;;;;;;;;;0.00;0.00;;;;;10.61;68.91;100625.03;5099310;27;45628;-62
2022/04/06 03:22:49;;;;;;;;;0.00;0.00;;;;;10.58;67.97;100617.31;5100585;27;46518;-62
2022/04/06 03:25:14;;;;;;;;;0.00;0.00;;;;;10.53;68.07;100620.94;5100749;27;45313;-63
2022/04/06 03:27:40;;;;;;;;;0.00;0.00;;;;;10.53;68.92;100616.59;5100474;27;45447;-62
2022/04/06 03:30:07;;;;;;;;;2.00;1.00;;;;;10.53;68.61;100606.19;5100722;27;45393;-63
2022/04/06 03:32:33;;;;;;;;;0.00;0.00;;;;;10.55;68.40;100603.56;5100484;27;46774;-62
2022/04/06 03:34:58;;;;;;;;;1.00;1.00;;;;;10.55;67.87;100609.59;5100467;27;45207;-62
2022/04/06 03:37:24;;;;;;;;;0.00;0.00;;;;;10.56;68.05;100595.72;5097046;27;45543;-62
2022/04/06 03:39:49;;;;;;;;;1.75;1.00;;;;;10.56;68.42;100595.72;5100404;27;45437;-63
2022/04/06 03:42:15;;;;;;;;;0.00;0.00;;;;;10.59;68.45;100605.16;5100425;27;45364;-65
2022/04/06 03:44:40;;;;;;;;;0.00;0.00;;;;;10.55;68.12;100594.00;5100509;27;45338;-62
2022/04/06 03:47:06;;;;;;;;;2.50;0.50;;;;;10.53;67.83;100593.22;5100451;27;45263;-60
2022/04/06 03:49:31;;;;;;;;;3.00;2.00;;;;;10.55;67.90;100595.75;5100254;27;46062;-61
2022/04/06 03:51:57;;;;;;;;;0.00;0.00;;;;;10.58;68.32;100604.31;5099467;27;45445;-61
2022/04/06 03:54:22;;;;;;;;;0.25;0.00;;;;;10.59;68.03;100600.81;5100104;27;45345;-61
2022/04/06 03:56:48;;;;;;;;;0.00;0.00;;;;;10.57;68.03;100594.81;5100324;27;45327;-61
2022/04/06 03:59:13;;;;;;;;;0.00;0.00;;;;;10.55;68.50;100588.81;5100421;27;45275;-61
2022/04/06 04:01:38;;;;;;;;;1.50;0.00;;;;;10.57;68.08;100586.16;5100245;27;45540;-61
2022/04/06 04:04:06;;;;;;;;;0.00;0.00;;;;;10.56;67.77;100587.91;5100313;27;45341;-61
2022/04/06 04:06:32;;;;;;;;;0.25;0.25;;;;;10.57;67.73;100587.00;5100142;27;45165;-62
2022/04/06 04:08:58;;;;;;;;;0.00;0.00;;;;;10.56;67.71;100587.06;5099863;27;45341;-62
2022/04/06 04:11:23;;;;;;;;;1.75;1.75;;;;;10.56;68.06;100584.47;5099817;27;45407;-62
2022/04/06 04:13:49;;;;;;;;;0.00;0.00;;;;;10.53;68.33;100580.22;5099753;27;45206;-62
2022/04/06 04:16:14;;;;;;;;;0.75;0.75;;;;;10.52;68.21;100586.31;5098543;27;45229;-62
2022/04/06 04:18:41;;;;;;;;;0.50;0.50;;;;;10.47;68.37;100579.56;5100199;27;45340;-62
2022/04/06 04:23:50;;;;;;;;;1.00;1.00;;;;;10.42;68.58;100579.69;5099752;27;45286;-62
2022/04/06 04:26:15;;;;;;;;;1.00;1.00;;;;;10.43;68.87;100580.56;5100211;27;45408;-62
2022/04/06 04:28:41;;;;;;;;;1.00;1.00;;;;;10.48;68.91;100587.31;5099385;27;45531;-62
2022/04/06 04:31:06;;;;;;;;;0.50;0.50;;;;;10.48;68.80;100581.25;5099452;27;46668;-63
2022/04/06 04:33:31;;;;;;;;;0.25;0.25;;;;;10.51;68.80;100576.81;5098976;27;45211;-63
2022/04/06 04:35:57;;;;;;;;;3.00;0.00;;;;;10.49;68.87;100575.16;5094863;27;45406;-64
2022/04/06 04:38:23;;;;;;;;;0.00;0.00;;;;;10.51;68.41;100573.38;5098641;27;45409;-64
2022/04/06 04:40:48;;;;;;;;;0.00;0.00;;;;;10.49;68.48;100569.97;5099717;27;45397;-64
2022/04/06 04:43:13;;;;;;;;;1.00;1.00;;;;;10.49;68.31;100564.78;5099546;27;45298;-63
2022/04/06 04:45:39;;;;;;;;;0.50;0.50;;;;;10.52;68.52;100568.13;5099649;27;45254;-64
2022/04/06 04:48:04;;;;;;;;;1.00;1.00;;;;;10.55;68.19;100568.03;5099888;27;45316;-63
2022/04/06 04:50:30;;;;;;;;;0.00;0.00;;;;;10.58;68.24;100573.13;5099256;27;45527;-63
2022/04/06 04:52:55;;;;;;;;;1.00;1.00;;;;;10.58;68.29;100564.47;5099434;27;45273;-64
2022/04/06 04:55:21;;;;;;;;;1.00;1.00;;;;;10.58;68.04;100567.94;5099224;27;45588;-64
2022/04/06 04:57:46;;;;;;;;;3.00;1.50;;;;;10.65;68.21;100560.81;5099401;27;45216;-63
2022/04/06 05:00:12;;;;;;;;;2.00;2.00;;;;;10.69;68.33;100543.38;5099060;27;45520;-65
2022/04/06 05:02:37;;;;;;;;;3.00;0.50;;;;;10.72;67.06;100538.94;5099479;27;45242;-65
2022/04/06 05:05:08;;;;;;;;;0.00;0.00;;;;;10.70;66.90;100534.69;5101870;27;45546;-65
2022/04/06 05:07:37;;;;;;;;;0.50;0.50;;;;;10.67;66.89;100535.63;5102692;27;45229;-65
2022/04/06 05:10:07;;;;;;;;;1.75;1.00;;;;;10.68;66.93;100539.09;5101689;27;46163;-65
2022/04/06 05:12:34;;;;;;;;;0.25;0.25;;;;;10.67;66.58;100548.63;5101834;27;45712;-65
2022/04/06 05:14:59;;;;;;;;;2.00;1.00;;;;;10.69;66.63;100549.44;5102958;27;45245;-65
2022/04/06 05:17:25;;;;;;;;;2.00;1.00;;;;;10.73;67.09;100539.78;5102602;27;45258;-65
2022/04/06 05:19:51;;;;;;;;;2.25;0.75;;;;;10.76;66.99;100544.88;5102754;27;45726;-65
2022/04/06 05:22:17;;;;;;;;;1.00;1.00;;;;;10.77;66.88;100541.38;5102311;27;45309;-65
2022/04/06 05:24:43;;;;;;;;;2.00;0.00;;;;;10.79;66.85;100535.22;5101272;27;45384;-63
2022/04/06 05:27:08;;;;;;;;;2.00;2.00;;;;;10.79;66.71;100545.63;5102186;27;45380;-64
2022/04/06 05:29:34;;;;;;;;;1.25;0.00;;;;;10.81;66.64;100538.66;5102021;27;45342;-63
2022/04/06 05:32:00;;;;;;;;;1.00;1.00;;;;;10.81;66.79;100538.66;5102255;27;45295;-64
2022/04/06 05:34:25;;;;;;;;;2.00;1.00;;;;;10.82;66.88;100532.56;5102244;27;45479;-64
2022/04/06 05:36:51;;;;;;;;;2.25;1.00;;;;;10.89;67.04;100541.00;5097238;27;45419;-64
2022/04/06 05:39:16;;;;;;;;;2.00;2.00;;;;;10.91;66.93;100541.81;5099759;27;46602;-64
2022/04/06 05:41:41;;;;;;;;;4.25;3.00;;;;;10.87;67.51;100542.81;5101801;27;45356;-64
2022/04/06 05:44:07;;;;;;;;;3.25;1.00;;;;;10.93;67.44;100542.59;5101801;27;45434;-64
2022/04/06 05:46:32;;;;;;;;;3.25;2.50;;;;;10.98;67.09;100545.91;5101958;27;45313;-65
2022/04/06 05:48:58;;;;;;;;;1.25;0.25;;;;;11.00;67.12;100544.09;5101797;27;45423;-65
2022/04/06 05:51:23;;;;;;;;;3.00;1.75;;;;;11.03;67.17;100549.22;5101938;27;45339;-65
2022/04/06 05:53:49;;;;;;;;;1.50;1.00;;;;;11.03;67.08;100541.41;5101552;27;45289;-65
2022/04/06 05:56:14;;;;;;;;;1.50;1.00;;;;;11.03;67.20;100531.03;5100260;27;45310;-63
2022/04/06 05:58:41;;;;;;;;;2.00;2.00;;;;;11.05;67.29;100538.75;5101329;27;45256;-63
2022/04/06 06:01:06;;;;;;;;;2.00;1.00;;;;;10.97;67.28;100536.38;5101827;27;45290;-64
2022/04/06 06:03:31;;;;;;;;;1.50;1.50;;;;;10.91;67.59;100541.81;5101756;27;45394;-64
2022/04/06 06:05:57;;;;;;;;;3.50;3.00;;;;;10.93;67.68;100548.66;5101481;27;45506;-65
2022/04/06 06:08:22;;;;;;;;;2.50;2.00;;;;;10.96;67.74;100542.50;5101339;27;45317;-64
2022/04/06 06:10:48;;;;;;;;;4.75;3.00;;;;;11.01;67.64;100543.19;5101562;27;45380;-64
2022/04/06 06:13:13;;;;;;;;;4.25;2.50;;;;;11.04;68.02;100534.47;5101285;27;45309;-64
2022/04/06 06:15:38;;;;;;;;;6.00;3.25;;;;;11.04;68.15;100537.91;5100690;27;45186;-64
2022/04/06 06:18:04;;;;;;;;;5.00;3.00;;;;;11.00;68.20;100544.09;5101155;27;45303;-62
2022/04/06 06:20:29;;;;;;;;;5.50;3.75;;;;;10.93;68.73;100542.59;5101498;27;45235;-62
2022/04/06 06:22:55;;;;;;;;;2.75;2.00;;;;;10.95;68.43;100541.66;5101483;27;45388;-63
2022/04/06 06:25:20;;;;;;;;;7.00;3.00;;;;;10.92;68.26;100535.69;5101000;27;45320;-63
2022/04/06 06:27:46;;;;;;;;;3.50;3.00;;;;;10.88;68.52;100537.56;5100682;27;45460;-63
2022/04/06 06:30:13;;;;;;;;;3.00;3.00;;;;;10.87;68.82;100533.25;5101337;27;45306;-64
2022/04/06 06:32:39;;;;;;;;;3.25;3.00;;;;;10.88;68.86;100532.34;5101560;27;45299;-65
2022/04/06 06:35:08;;;;;;;;;5.50;5.25;;;;;10.86;69.03;100530.72;5100902;27;45486;-64
2022/04/06 06:37:33;;;;;;;;;3.50;3.00;;;;;10.90;68.83;100532.31;5101021;27;47048;-63
2022/04/06 06:39:59;;;;;;;;;8.25;7.50;;;;;10.86;68.75;100531.56;5100695;27;45287;-64
2022/04/06 06:42:24;;;;;;;;;3.00;3.00;;;;;10.88;69.52;100529.75;5100799;27;45259;-64
2022/04/06 06:44:50;;;;;;;;;3.75;3.75;;;;;10.92;69.10;100530.50;5101182;27;45383;-64
2022/04/06 06:47:15;;;;;;;;;5.00;2.75;;;;;11.01;69.08;100524.13;5100851;27;45288;-64
2022/04/06 06:49:46;;;;;;;;;9.00;7.00;;;;;11.03;69.03;100522.38;5100909;27;45448;-64
2022/04/06 06:52:13;;;;;;;;;12.25;5.75;;;;;11.01;68.66;100527.59;5100681;27;45215;-64
2022/04/06 06:54:39;;;;;;;;;5.75;4.00;;;;;11.04;68.53;100530.13;5100393;27;45268;-63
2022/04/06 06:57:04;;;;;;;;;9.00;6.00;;;;;11.07;68.78;100523.97;5100273;27;45474;-63
2022/04/06 06:59:30;;;;;;;;;8.00;3.75;;;;;11.13;68.79;100519.41;5100664;27;45511;-64
2022/04/06 07:01:55;;;;;;;;;4.00;2.00;;;;;11.19;68.72;100519.19;5100766;27;45374;-63
2022/04/06 07:04:22;;;;;;;;;3.50;2.25;;;;;11.24;68.64;100521.66;5100532;27;45295;-64
2022/04/06 07:06:49;;;;;;;;;2.75;2.00;;;;;11.32;68.29;100521.38;5100494;27;46440;-63
2022/04/06 07:09:15;;;;;;;;;3.00;3.00;;;;;11.40;68.14;100517.59;5100228;27;45824;-63
2022/04/06 07:11:41;;;;;;;;;4.50;3.00;;;;;11.47;68.42;100519.13;5100851;27;45297;-64
2022/04/06 07:14:07;;;;;;;;;3.75;2.00;;;;;11.55;67.83;100518.84;5100699;27;45230;-63
2022/04/06 07:16:32;;;;;;;;;4.50;2.00;;;;;11.59;67.20;100518.66;5100894;27;45365;-63
2022/04/06 07:18:57;;;;;;;;;3.00;3.00;;;;;11.64;67.59;100513.31;5100386;27;45265;-65
2022/04/06 07:21:23;;;;;;;;;5.25;3.00;;;;;11.65;67.43;100516.78;5100751;27;45319;-64
2022/04/06 07:23:48;;;;;;;;;3.25;3.00;;;;;11.65;66.81;100512.41;5100139;27;45399;-63
2022/04/06 07:26:16;;;;;;;;;7.50;7.25;;;;;11.70;67.05;100513.09;5099543;27;46277;-61
2022/04/06 07:28:45;;;;;;;;;1.75;1.75;;;;;11.71;66.87;100511.34;5100157;27;45774;-65
2022/04/06 07:31:13;;;;;;;;;4.75;3.00;;;;;11.74;66.62;100506.88;5100351;27;45245;-68
2022/04/06 07:33:40;;;;;;;;;2.75;2.75;;;;;11.76;66.53;100509.41;5100614;27;45220;-68
2022/04/06 07:36:06;;;;;;;;;3.75;2.50;;;;;11.84;66.41;100492.66;5095077;27;45515;-66
2022/04/06 07:38:31;;;;;;;;;6.00;5.00;;;;;11.91;66.45;100495.88;5092665;27;46267;-63
2022/04/06 07:40:57;;;;;;;;;3.25;1.25;;;;;11.98;66.06;100504.31;5098725;27;45481;-62
2022/04/06 07:43:23;;;;;;;;;3.00;1.00;;;;;12.05;66.68;100501.44;5100294;27;45352;-67
2022/04/06 07:45:48;;;;;;;;;1.75;1.75;;;;;12.11;65.43;100508.16;5100309;27;46176;-60
2022/04/06 07:48:14;;;;;;;;;3.50;2.25;;;;;12.13;65.68;100504.59;5100100;27;45393;-63
2022/04/06 07:50:39;;;;;;;;;3.50;2.25;;;;;12.19;65.45;100504.34;5100419;27;45496;-62
2022/04/06 07:53:05;;;;;;;;;4.50;3.00;;;;;12.30;65.51;100500.50;5094046;27;45326;-61
2022/04/06 07:55:30;;;;;;;;;1.75;1.75;;;;;12.38;63.95;100488.00;5098803;27;46724;-59
2022/04/06 07:57:55;;;;;;;;;3.00;2.00;;;;;12.43;64.62;100491.31;5099729;27;45354;-59
2022/04/06 08:00:21;;;;;;;;;5.00;2.75;;;;;12.50;64.23;100487.53;5100125;27;45214;-60
2022/04/06 08:02:48;;;;;;;;;4.75;3.75;;;;;12.48;63.08;100479.78;5100217;27;45151;-60
2022/04/06 08:05:14;;;;;;;;;2.00;2.00;;;;;12.47;64.12;100482.47;5086647;27;45345;-59
2022/04/06 08:07:43;;;;;;;;;3.00;3.00;;;;;12.54;64.47;100481.28;5100201;27;45709;-60
2022/04/06 08:10:13;;;;;;;;;3.25;1.25;;;;;12.60;64.16;100478.44;5100125;27;45854;-59
2022/04/06 08:12:39;;;;;;;;;3.00;1.50;;;;;12.67;63.65;100477.28;5099444;27;45280;-60
2022/04/06 08:15:06;;;;;;;;;2.00;2.00;;;;;12.79;63.42;100468.09;5099540;27;47047;-59
2022/04/06 08:17:43;;;;;;;;;1.00;1.00;;;;;12.89;63.67;100469.44;5099771;27;45351;-58
2022/04/06 08:20:13;;;;;;;;;3.00;2.00;;;;;12.94;63.24;100466.66;5100172;27;45321;-59
2022/04/06 08:22:41;;;;;;;;;9.25;4.00;;;;;12.99;62.26;100470.75;5098313;27;45292;-58
2022/04/06 08:25:06;;;;;;;;;3.75;3.75;;;;;12.97;62.46;100472.56;5099687;27;45390;-59
2022/04/06 08:27:36;;;;;;;;;3.00;1.25;;;;;13.03;62.69;100467.13;5099375;27;45317;-61
2022/04/06 08:30:02;;;;;;;;;4.00;2.75;;;;;13.15;62.79;100457.91;5100074;27;45405;-65
2022/04/06 08:32:28;;;;;;;;;1.00;1.00;;;;;13.21;61.46;100464.66;5098554;27;46079;-67
2022/04/06 08:34:53;;;;;;;;;4.25;2.00;;;;;13.17;61.69;100457.84;5099933;27;46177;-69
2022/04/06 08:37:18;;;;;;;;;2.25;1.75;;;;;13.22;61.32;100463.78;5095878;27;45273;-68
2022/04/06 08:39:44;;;;;;;;;7.25;3.00;;;;;13.22;61.54;100474.22;5103371;27;45367;-60
2022/04/06 08:42:10;;;;;;;;;2.50;1.00;;;;;13.27;60.78;100453.97;5103132;27;45274;-58
2022/04/06 08:44:36;;;;;;;;;2.75;1.50;;;;;13.26;59.95;100450.53;5102815;27;45544;-59
2022/04/06 08:47:06;;;;;;;;;1.00;1.00;;;;;13.25;60.93;100461.03;5103083;27;45339;-59
2022/04/06 08:49:33;;;;;;;;;2.00;2.00;;;;;13.26;61.44;100455.75;5103374;27;45506;-58
2022/04/06 08:52:00;;;;;;;;;1.00;1.00;;;;;13.38;60.76;100459.56;5103123;27;45341;-58
2022/04/06 08:54:26;;;;;;;;;1.75;1.75;;;;;13.41;60.83;100456.81;5102895;27;45554;-61
2022/04/06 08:56:52;;;;;;;;;2.75;2.75;;;;;13.41;60.67;100456.81;5102899;27;45329;-58
2022/04/06 08:59:17;;;;;;;;;3.00;1.00;;;;;13.38;60.34;100457.78;5103222;27;45483;-59
2022/04/06 09:01:43;;;;;;;;;3.50;3.00;;;;;13.47;60.54;100466.16;5101875;27;45409;-58
2022/04/06 09:04:08;;;;;;;;;8.75;4.00;;;;;13.45;58.78;100450.56;5102893;27;45393;-58
2022/04/06 09:06:41;;;;;;;;;9.50;3.00;;;;;13.38;59.35;100457.78;5102702;27;45448;-58
2022/04/06 09:09:08;;;;;;;;;4.00;2.00;;;;;13.35;58.99;100454.47;5102820;27;45293;-58
2022/04/06 09:11:44;;;;;;;;;1.50;1.25;;;;;13.28;59.01;100453.06;5102263;27;45333;-58
2022/04/06 09:14:10;;;;;;;;;3.00;2.75;;;;;13.23;59.65;100452.41;5102062;27;45676;-58
2022/04/06 09:16:36;;;;;;;;;4.00;2.00;;;;;13.27;58.76;100448.75;5102795;27;45732;-59
2022/04/06 09:19:08;;;;;;;;;2.00;1.75;;;;;13.34;58.82;100452.78;5102708;27;45454;-60
2022/04/06 09:21:42;;;;;;;;;3.00;2.25;;;;;13.38;59.29;100454.34;5103161;27;45340;-58
2022/04/06 09:24:18;;;;;;;;;1.25;1.25;;;;;13.46;59.23;100444.44;5102480;27;45376;-58
2022/04/06 09:26:49;;;;;;;;;3.25;2.25;;;;;13.53;58.06;100448.47;5102332;27;45339;-59
2022/04/06 09:29:20;;;;;;;;;1.00;1.00;;;;;13.60;58.23;100441.19;5099929;27;45634;-59
2022/04/06 09:31:48;;;;;;;;;2.50;2.50;;;;;13.59;57.78;100453.41;5101837;27;45350;-59
2022/04/06 09:34:14;;;;;;;;;3.75;2.50;;;;;13.68;58.57;100447.78;5101549;27;45391;-59
2022/04/06 09:36:39;;;;;;;;;2.50;2.50;;;;;13.78;57.70;100450.81;5097465;27;45343;-59
2022/04/06 09:39:05;;;;;;;;;2.50;2.50;;;;;13.73;57.02;100438.88;5101539;27;45382;-59
2022/04/06 09:41:32;;;;;;;;;2.00;0.00;;;;;13.59;57.86;100439.50;5102110;27;45399;-58
2022/04/06 09:47:38;;;;;;;;;2.75;2.00;;;;;13.56;57.12;100445.69;5101819;27;45629;-59
2022/04/06 09:50:15;;;;;;;;;6.50;5.25;;;;;13.45;58.39;100440.13;5100984;27;45434;-58
2022/04/06 09:52:44;;;;;;;;;3.25;2.00;;;;;13.56;58.07;100435.25;5090801;27;45343;-58
2022/04/06 09:55:13;;;;;;;;;1.00;1.00;;;;;13.60;58.17;100444.66;5101735;27;46171;-58
2022/04/06 09:57:59;;;;;;;;;3.50;2.00;;;;;13.68;56.53;100441.72;5101981;27;45679;-57
2022/04/06 10:00:30;;;;;;;;;3.75;2.50;;;;;13.53;56.71;100450.22;5088509;27;45252;-57
2022/04/06 10:03:10;;;;;;;;;1.25;1.25;;;;;13.48;57.60;100447.81;5100796;27;45522;-58
2022/04/06 10:05:38;;;;;;;;;1.50;1.50;;;;;13.42;57.28;100442.88;5101344;27;45549;-56
2022/04/06 10:08:09;;;;;;;;;3.25;1.75;;;;;13.34;57.54;100450.19;5101266;27;45317;-59
2022/04/06 10:10:36;;;;;;;;;4.75;3.00;;;;;13.42;58.14;100452.47;5100337;27;45575;-63
2022/04/06 10:13:07;;;;;;;;;4.25;4.00;;;;;13.57;58.22;100444.78;5101302;27;45526;-63
2022/04/06 10:15:35;;;;;;;;;3.50;3.00;;;;;13.70;58.02;100452.94;5101638;27;45652;-62
2022/04/06 10:18:01;;;;;;;;;1.25;1.25;;;;;13.81;57.49;100439.38;5101728;27;45786;-63
2022/04/06 10:20:35;;;;;;;;;3.25;3.25;;;;;13.82;56.93;100436.72;5101947;27;45333;-62
2022/04/06 10:23:15;;;;;;;;;3.75;3.75;;;;;13.79;57.42;100425.53;5101263;27;45384;-63
2022/04/06 10:25:59;;;;;;;;;4.75;2.75;;;;;13.79;57.58;100430.75;5101392;27;46305;-63
2022/04/06 10:28:25;;;;;;;;;5.25;2.75;;;;;13.87;57.67;100413.84;5101010;27;45398;-63
2022/04/06 10:31:12;;;;;;;;;5.00;4.25;;;;;13.96;57.85;100416.00;5101180;27;45256;-64
2022/04/06 10:33:38;;;;;;;;;5.00;4.00;;;;;14.10;57.71;100417.13;5101673;27;45266;-63
2022/04/06 10:36:17;;;;;;;;;2.00;2.00;;;;;14.03;56.27;100410.53;5097178;27;46192;-67
2022/04/06 10:39:17;;;;;;;;;3.25;3.25;;;;;13.92;56.36;100403.16;5101080;27;45269;-63
2022/04/06 10:42:13;;;;;;;;;3.00;3.00;;;;;13.88;56.72;100402.47;5078343;28;45383;-63
2022/04/06 10:44:39;;;;;;;;;3.75;3.75;;;;;13.93;57.48;100397.03;5090102;27;45169;-64
2022/04/06 10:47:08;;;;;;;;;4.00;2.00;;;;;13.98;57.47;100400.25;5100840;27;46451;-62
2022/04/06 10:49:33;;;;;;;;;4.25;3.75;;;;;13.95;56.76;100392.56;5099016;27;45927;-62
2022/04/06 10:52:22;;;;;;;;;8.75;5.00;;;;;13.78;57.06;100392.50;5101095;27;45294;-63
2022/04/06 10:54:48;;;;;;;;;4.00;2.75;;;;;13.66;57.70;100383.50;5100641;27;45250;-63
2022/04/06 10:57:14;;;;;;;;;4.50;4.00;;;;;13.62;57.78;100389.78;5085781;27;47565;-64
2022/04/06 10:59:40;;;;;;;;;3.00;3.00;;;;;13.59;58.49;100385.50;5099760;27;45783;-65
2022/04/06 11:02:20;;;;;;;;;4.00;4.00;;;;;13.62;58.26;100367.13;5101083;27;45382;-64
2022/04/06 11:04:48;;;;;;;;;4.00;3.00;;;;;13.60;58.38;100366.31;5099377;27;45734;-64
2022/04/06 11:10:06;;;;;;;;;3.75;1.75;;;;;13.63;58.78;100363.59;5101053;27;46176;-62
2022/04/06 11:10:15;;;;;;;;;5.25;4.00;;;;;13.64;58.75;100352.22;5099931;27;45325;-63
2022/04/06 11:13:00;;;;;;;;;4.75;4.50;;;;;13.78;58.61;100356.78;5100655;27;45269;-67
2022/04/06 11:15:40;;;;;;;;;7.25;6.00;;;;;13.88;58.73;100352.00;5100620;27;45405;-66
2022/04/06 11:18:26;;;;;;;;;11.00;7.25;;;;;13.88;58.50;100358.06;5100411;27;45572;-66
2022/04/06 11:21:01;;;;;;;;;5.00;5.00;;;;;13.94;59.08;100336.03;5100288;27;45322;-66
2022/04/06 11:23:29;;;;;;;;;11.50;9.00;;;;;14.04;58.57;100342.50;5100637;27;45291;-65
2022/04/06 11:25:56;;;;;;;;;13.25;10.00;;;;;14.11;58.35;100337.81;5100497;27;45255;-60
2022/04/06 11:28:21;;;;;;;;;6.00;6.00;;;;;14.16;58.16;100328.84;5098624;27;45450;-62
2022/04/06 11:30:47;;;;;;;;;8.25;4.75;;;;;14.30;58.51;100321.16;5100111;27;45501;-61
2022/04/06 11:33:13;;;;;;;;;11.75;10.50;;;;;14.30;58.51;100313.34;5100622;27;45337;-61